KCOD

Details ICAO KCOD (COD)
Name Yellowstone Rgnl
Region United States
Timezone America/Denver (UTC-7.0)
Plans Departing 10
Arriving 21
Stats Elevation 5,102 ft / 1,555 m (AMSL)
Location 44.520187° -109.023806°
Runways 1
Magnetic Variation 10.756° E
Sunrise 2017-12-14 14:46:39 UTC / 2017-12-14 07:46:39 Local
Sunset 2017-12-14 23:37:59 UTC / 2017-12-14 16:37:59 Local
Advertisement - Login to hide

Runways

ID Width Length Bearing (true) Bearing (mag) Surface Threshold Offset Overrun Length
04 98 ft / 30 m 8,264 ft / 2,519 m 52.19° 41.43° Asphalt 689 ft / 210 m 236 ft / 72 m
22 98 ft / 30 m 8,264 ft / 2,519 m 232.21° 221.45° Asphalt 397 ft / 121 m 203 ft / 62 m

Map

Weather


0- 5 10 15 20 25 30 35+ Temperature / ° C

Clouds and Precipitation
Forecast for 2017-12-15 00:00 UTC. Updated 2 hours ago

Ground ~20,000 ft ~40,000 ft Winds

METAR

KCOD 142056Z AUTO 16005KT 10SM CLR 05/M10 A3025 RMK AO2 SLP277 T00501100 56021

TAF

KCOD 141734Z 1418/1518 VRB06KT P6SM FEW200 FM150700 25012G18KT P6SM SCT200 WS010/26040KT FM151200 26015G25KT P6SM SCT200 WS010/26050KT AMD LTD TO CLD VIS AND WIND

Frequencies

Recorded 135.07 MHz AWOS 3
Unicom 122.80 MHz CTAF/UNICOM
Warning: Do not use this data for real-world aviation or navigation. No guarantee of current accuracy is given.